Morning Charlotte — 3EMA2 — position and weather

sailwx.info

Track history (hours):
 
Tides and Currents Weather Stations Pressure Air Temp Water Temp Dewpoint Dewpoint Depression Visibility Wind Speed Wind Dir Waves Ship Positions

Morning Charlotte

Last reported at 2014-Aug-30 04:32 UTC. Time now 2014-Sep-18 09:40 UTC.
Position N 34°14' W 076°17'.
Warning: this ship's position is 19 days out of date.

Length 200 m; draft 8 m.

Type: Cargo ship. MMSI: 357275000.

Date/timePositionNaut miles runAvg speedWind from/ knotsBaromVisibWave heightAir tempDewpointWater temp
2014-Aug-30 04:32N 34°14' W 076°17'1919.0
2014-Aug-30 03:34N 34°26' W 075°59'1918.6
2014-Aug-30 02:34N 34°39' W 075°43'4216.8
2014-Aug-30 00:03N 35°10' W 075°09'23919.1
2014-Aug-29 11:33N 39°03' W 074°01'1919.6
2014-Aug-29 10:34N 39°22' W 073°57'2019.5
2014-Aug-29 09:33N 39°41' W 073°53'2019.5
2014-Aug-29 08:33N 40°01' W 073°51'1919.2
2014-Aug-29 07:34N 40°20' W 073°49'1111.3
2014-Aug-29 06:33N 40°30' W 073°56'1312.5
2014-Aug-29 05:34N 40°40' W 074°05'0 0.1
2014-Aug-29 04:33N 40°40' W 074°05'0 0.0
2014-Aug-29 03:33N 40°40' W 074°05'0 0.0
2014-Aug-29 02:33N 40°40' W 074°05'0 0.0
2014-Aug-29 01:33N 40°40' W 074°05'0 0.0
2014-Aug-29 00:33N 40°40' W 074°05'0 0.0
2014-Aug-28 23:33N 40°40' W 074°05'0 0.0
2014-Aug-28 22:33N 40°40' W 074°05'0 0.0
2014-Aug-28 21:33N 40°40' W 074°05'0 0.0
2014-Aug-28 20:33N 40°40' W 074°05'0 0.0
2014-Aug-28 19:33N 40°40' W 074°05'0 0.0
2014-Aug-28 18:33N 40°40' W 074°05'0 0.0
2014-Aug-28 17:33N 40°40' W 074°05'0 0.0
2014-Aug-28 16:33N 40°40' W 074°05'0 0.0
2014-Aug-28 15:33N 40°40' W 074°05'0 0.0
2014-Aug-28 14:33N 40°40' W 074°05'3 3.4
2014-Aug-28 13:33N 40°37' W 074°03'1111.1
2014-Aug-28 12:33N 40°29' W 073°53'8 8.2
2014-Aug-28 11:33N 40°23' W 073°46'1111.4
2014-Aug-28 10:33N 40°11' W 073°45'1716.5
2014-Aug-28 09:33N 39°55' W 073°42'1716.7
2014-Aug-28 08:33N 39°38' W 073°41'1818.2
2014-Aug-28 07:34N 39°20' W 073°41'1818.1
2014-Aug-28 06:33N 39°03' W 073°46'2019.5
2014-Aug-28 05:33N 38°48' W 074°03'1918.7
2014-Aug-28 04:34N 38°45' W 074°27'2019.8
2014-Aug-28 03:33N 38°46' W 074°52'1211.8
2014-Aug-28 02:34N 38°52' W 075°05'1515.4
2014-Aug-28 01:34N 39°06' W 075°12'1816.8
2014-Aug-28 00:28N 39°21' W 075°26'2015.6
2014-Aug-27 23:12N 39°40' W 075°31'23 2.9
2014-Aug-27 15:17N 39°54' W 075°08'0 0.0
2014-Aug-27 14:17N 39°54' W 075°08'0 0.0
2014-Aug-27 13:17N 39°54' W 075°08'0 0.0
2014-Aug-27 12:29N 39°54' W 075°08'0 0.0
2014-Aug-27 10:32N 39°54' W 075°08'1 0.6
2014-Aug-27 09:33N 39°54' W 075°08'8 7.9
2014-Aug-27 08:33N 39°51' W 075°18'1110.6
2014-Aug-27 07:33N 39°45' W 075°29'1414.2
2014-Aug-27 06:34N 39°31' W 075°33'1716.6
2014-Aug-27 05:33N 39°17' W 075°22'1313.3
2014-Aug-27 04:33N 39°06' W 075°12'1716.6
2014-Aug-27 03:34N 38°51' W 075°04'1515.4
2014-Aug-27 02:33N 38°39' W 074°51'1918.9
2014-Aug-27 01:34N 38°24' W 074°36'2019.7
2014-Aug-27 00:33N 38°05' W 074°29'1515.0
2014-Aug-26 23:33N 37°50' W 074°26'1918.7
2014-Aug-26 22:33N 37°31' W 074°28'5919.0
2014-Aug-26 19:25N 36°32' W 074°31'41715.8
2014-Aug-25 17:03N 32°06' W 081°00'4 8.0
2014-Aug-25 16:33N 32°05' W 081°05'1 1.1
2014-Aug-25 15:27N 32°05' W 081°06'0 0.0
2014-Aug-25 14:33N 32°05' W 081°06'0 0.0
2014-Aug-25 13:33N 32°05' W 081°06'0 0.0
2014-Aug-25 12:30N 32°05' W 081°06'0 0.0
2014-Aug-25 11:24N 32°05' W 081°06'0 0.0
2014-Aug-25 10:33N 32°05' W 081°06'0 0.0
2014-Aug-25 08:33N 32°05' W 081°06'1 1.2
2014-Aug-25 07:33N 32°06' W 081°07'3 2.6
2014-Aug-25 06:33N 32°05' W 081°04'  
Track history (hours):
 
Tides and Currents Weather Stations Pressure Air Temp Water Temp Dewpoint Dewpoint Depression Visibility Wind Speed Wind Dir Waves Ship Positions

Morning Charlotte

Last reported at 2014-Aug-30 04:32 UTC. Time now 2014-Sep-18 09:40 UTC.
Position N 34°14' W 076°17'.
Warning: this ship's position is 19 days out of date.

Length 200 m; draft 8 m.

Type: Cargo ship. MMSI: 357275000.

Date/timePositionNaut miles runAvg speedWind from/ knotsBaromVisibWave heightAir tempDewpointWater temp
2014-Aug-30 04:32N 34°14' W 076°17'1919.0
2014-Aug-30 03:34N 34°26' W 075°59'1918.6
2014-Aug-30 02:34N 34°39' W 075°43'4216.8
2014-Aug-30 00:03N 35°10' W 075°09'23919.1
2014-Aug-29 11:33N 39°03' W 074°01'1919.6
2014-Aug-29 10:34N 39°22' W 073°57'2019.5
2014-Aug-29 09:33N 39°41' W 073°53'2019.5
2014-Aug-29 08:33N 40°01' W 073°51'1919.2
2014-Aug-29 07:34N 40°20' W 073°49'1111.3
2014-Aug-29 06:33N 40°30' W 073°56'1312.5
2014-Aug-29 05:34N 40°40' W 074°05'0 0.1
2014-Aug-29 04:33N 40°40' W 074°05'0 0.0
2014-Aug-29 03:33N 40°40' W 074°05'0 0.0
2014-Aug-29 02:33N 40°40' W 074°05'0 0.0
2014-Aug-29 01:33N 40°40' W 074°05'0 0.0
2014-Aug-29 00:33N 40°40' W 074°05'0 0.0
2014-Aug-28 23:33N 40°40' W 074°05'0 0.0
2014-Aug-28 22:33N 40°40' W 074°05'0 0.0
2014-Aug-28 21:33N 40°40' W 074°05'0 0.0
2014-Aug-28 20:33N 40°40' W 074°05'0 0.0
2014-Aug-28 19:33N 40°40' W 074°05'0 0.0
2014-Aug-28 18:33N 40°40' W 074°05'0 0.0
2014-Aug-28 17:33N 40°40' W 074°05'0 0.0
2014-Aug-28 16:33N 40°40' W 074°05'0 0.0
2014-Aug-28 15:33N 40°40' W 074°05'0 0.0
2014-Aug-28 14:33N 40°40' W 074°05'3 3.4
2014-Aug-28 13:33N 40°37' W 074°03'1111.1
2014-Aug-28 12:33N 40°29' W 073°53'8 8.2
2014-Aug-28 11:33N 40°23' W 073°46'1111.4
2014-Aug-28 10:33N 40°11' W 073°45'1716.5
2014-Aug-28 09:33N 39°55' W 073°42'1716.7
2014-Aug-28 08:33N 39°38' W 073°41'1818.2
2014-Aug-28 07:34N 39°20' W 073°41'1818.1
2014-Aug-28 06:33N 39°03' W 073°46'2019.5
2014-Aug-28 05:33N 38°48' W 074°03'1918.7
2014-Aug-28 04:34N 38°45' W 074°27'2019.8
2014-Aug-28 03:33N 38°46' W 074°52'1211.8
2014-Aug-28 02:34N 38°52' W 075°05'1515.4
2014-Aug-28 01:34N 39°06' W 075°12'1816.8
2014-Aug-28 00:28N 39°21' W 075°26'2015.6
2014-Aug-27 23:12N 39°40' W 075°31'23 2.9
2014-Aug-27 15:17N 39°54' W 075°08'0 0.0
2014-Aug-27 14:17N 39°54' W 075°08'0 0.0
2014-Aug-27 13:17N 39°54' W 075°08'0 0.0
2014-Aug-27 12:29N 39°54' W 075°08'0 0.0
2014-Aug-27 10:32N 39°54' W 075°08'1 0.6
2014-Aug-27 09:33N 39°54' W 075°08'8 7.9
2014-Aug-27 08:33N 39°51' W 075°18'1110.6
2014-Aug-27 07:33N 39°45' W 075°29'1414.2
2014-Aug-27 06:34N 39°31' W 075°33'1716.6
2014-Aug-27 05:33N 39°17' W 075°22'1313.3
2014-Aug-27 04:33N 39°06' W 075°12'1716.6
2014-Aug-27 03:34N 38°51' W 075°04'1515.4
2014-Aug-27 02:33N 38°39' W 074°51'1918.9
2014-Aug-27 01:34N 38°24' W 074°36'2019.7
2014-Aug-27 00:33N 38°05' W 074°29'1515.0
2014-Aug-26 23:33N 37°50' W 074°26'1918.7
2014-Aug-26 22:33N 37°31' W 074°28'5919.0
2014-Aug-26 19:25N 36°32' W 074°31'41715.8
2014-Aug-25 17:03N 32°06' W 081°00'4 8.0
2014-Aug-25 16:33N 32°05' W 081°05'1 1.1
2014-Aug-25 15:27N 32°05' W 081°06'0 0.0
2014-Aug-25 14:33N 32°05' W 081°06'0 0.0
2014-Aug-25 13:33N 32°05' W 081°06'0 0.0
2014-Aug-25 12:30N 32°05' W 081°06'0 0.0
2014-Aug-25 11:24N 32°05' W 081°06'0 0.0
2014-Aug-25 10:33N 32°05' W 081°06'0 0.0
2014-Aug-25 08:33N 32°05' W 081°06'1 1.2
2014-Aug-25 07:33N 32°06' W 081°07'3 2.6
2014-Aug-25 06:33N 32°05' W 081°04'  

Dump ship's entire track history